Terminal Aerodrome Forecast
Issued by NWS Louisville, KY

Home | Current Version | Previous Version | Text Only | Print | Product List | Glossary On
Versions: 1 2 3 4 5 6 7 8 9 10 11 12 13 14 15 16 17 18
000
FTUS43 KLMK 270200 AAA
TAFSDF
TAF AMD
KSDF 270229Z 2702/2806 32006KT P6SM SCT030
      TEMPO 2702/2704 BKN027
     FM271500 33010KT P6SM BKN040
     FM280000 33008KT P6SM SKC=

USA.gov is the U.S. government's official web portal to all federal, state and local government web resources and services.